Time;durP1;ratioP1;P1;durP2;ratioP2;P2;SDS_P1;SDS_P2;PMS_P1;PMS_P2;Temp;Humidity;BMP_temperature;BMP_pressure;BME280_temperature;BME280_humidity;BME280_pressure;Samples;Min_cycle;Max_cycle;Signal;HPM_P1;HPM_P2
2020/12/30 00:00:07;;;;;;;4.63;2.13;;;4.90;99.90;;;;;;5029316;28;20041;-80
2020/12/30 00:02:34;;;;;;;4.78;2.40;;;5.00;99.90;;;;;;5029229;28;20048;-81
2020/12/30 00:05:04;;;;;;;4.25;2.22;;;4.90;99.90;;;;;;5029559;28;20035;-83
2020/12/30 00:07:33;;;;;;;3.58;2.00;;;4.90;99.90;;;;;;5028308;28;20037;-80
2020/12/30 00:09:59;;;;;;;3.92;2.25;;;4.90;99.90;;;;;;5025755;28;20069;-82
2020/12/30 00:12:28;;;;;;;12.73;5.28;;;5.00;99.90;;;;;;5026023;28;20063;-80
2020/12/30 00:14:56;;;;;;;4.63;2.38;;;5.00;99.90;;;;;;5028216;28;20120;-83
2020/12/30 00:17:22;;;;;;;10.02;5.13;;;5.00;99.90;;;;;;5024430;28;20018;-80
2020/12/30 00:19:47;;;;;;;8.15;4.15;;;5.00;99.90;;;;;;5035863;28;20021;-80
2020/12/30 00:22:13;;;;;;;5.15;2.90;;;5.00;99.90;;;;;;5031099;28;20127;-84
2020/12/30 00:24:39;;;;;;;5.72;3.25;;;5.00;99.90;;;;;;5028014;28;20442;-82
2020/12/30 00:27:05;;;;;;;5.47;2.63;;;5.00;99.90;;;;;;5027294;28;20040;-81
2020/12/30 00:29:31;;;;;;;4.32;2.83;;;5.00;99.90;;;;;;5031357;28;20064;-79
2020/12/30 00:31:57;;;;;;;4.88;2.67;;;5.10;99.90;;;;;;5027951;28;20049;-78
2020/12/30 00:34:23;;;;;;;3.70;2.60;;;5.00;99.90;;;;;;5033428;28;20030;-80
2020/12/30 00:36:49;;;;;;;6.55;2.72;;;5.00;99.90;;;;;;5046260;28;20045;-80
2020/12/30 00:39:15;;;;;;;4.45;2.70;;;5.00;99.90;;;;;;5030236;28;20041;-81
2020/12/30 00:41:41;;;;;;;4.80;2.60;;;5.00;99.90;;;;;;5027233;28;20506;-80
2020/12/30 00:44:07;;;;;;;5.63;2.45;;;5.00;99.90;;;;;;5040119;28;20145;-80
2020/12/30 00:46:33;;;;;;;4.93;2.50;;;5.00;99.90;;;;;;5042767;28;20047;-79
2020/12/30 00:48:59;;;;;;;5.70;3.33;;;5.00;99.90;;;;;;5026282;28;20412;-82
2020/12/30 00:51:24;;;;;;;4.72;3.15;;;5.00;99.90;;;;;;5026236;28;20053;-79
2020/12/30 00:53:50;;;;;;;5.07;3.00;;;5.00;99.90;;;;;;5027427;28;20043;-80
2020/12/30 00:56:15;;;;;;;6.70;3.55;;;5.00;99.90;;;;;;5030356;28;20041;-79
2020/12/30 00:58:41;;;;;;;5.18;3.50;;;5.00;99.90;;;;;;5025119;28;20048;-79
2020/12/30 01:01:08;;;;;;;5.28;3.17;;;5.00;99.90;;;;;;5017047;28;20049;-80
2020/12/30 01:03:38;;;;;;;5.60;3.10;;;5.00;99.90;;;;;;5031906;28;20402;-80
2020/12/30 01:06:04;;;;;;;7.13;4.07;;;5.00;99.90;;;;;;5023628;28;20052;-80
2020/12/30 01:08:30;;;;;;;5.65;3.17;;;5.10;99.90;;;;;;5028580;28;20026;-80
2020/12/30 01:10:56;;;;;;;5.38;3.60;;;5.10;99.90;;;;;;5028791;28;20487;-79
2020/12/30 01:13:22;;;;;;;5.75;3.65;;;5.10;99.90;;;;;;5027830;28;20095;-82
2020/12/30 01:15:48;;;;;;;6.63;3.60;;;5.10;99.90;;;;;;5025241;28;20036;-80
2020/12/30 01:18:14;;;;;;;6.72;3.72;;;5.10;99.90;;;;;;5031114;28;20056;-81
2020/12/30 01:20:39;;;;;;;6.82;3.97;;;5.10;99.90;;;;;;5029797;28;20050;-80
2020/12/30 01:23:05;;;;;;;6.47;3.95;;;5.10;99.90;;;;;;5028200;28;20127;-78
2020/12/30 01:25:31;;;;;;;6.15;4.00;;;5.20;99.90;;;;;;5031120;28;20067;-84
2020/12/30 01:27:56;;;;;;;8.43;4.00;;;5.20;99.90;;;;;;5007447;28;20038;-80
2020/12/30 01:30:23;;;;;;;7.13;3.95;;;5.10;99.90;;;;;;5028592;28;20041;-80
2020/12/30 01:32:48;;;;;;;7.65;3.78;;;5.10;99.90;;;;;;5046355;28;20515;-80
2020/12/30 01:35:14;;;;;;;5.88;3.90;;;5.10;99.90;;;;;;5046260;28;20389;-82
2020/12/30 01:37:41;;;;;;;5.70;3.75;;;5.10;99.90;;;;;;5034235;28;20033;-81
2020/12/30 01:40:07;;;;;;;5.28;3.80;;;5.10;99.90;;;;;;5034451;28;20102;-80
2020/12/30 01:42:49;;;;;;;5.57;3.50;;;5.10;99.90;;;;;;5036119;28;20035;-82
2020/12/30 01:45:15;;;;;;;5.85;4.30;;;5.20;99.90;;;;;;5028227;28;20207;-83
2020/12/30 01:47:43;;;;;;;6.70;3.55;;;5.20;99.90;;;;;;5026319;28;20566;-81
2020/12/30 01:50:09;;;;;;;7.75;4.25;;;5.20;99.90;;;;;;5026598;28;20045;-83
2020/12/30 01:52:35;;;;;;;5.72;4.03;;;5.20;99.90;;;;;;5029436;28;20037;-80
2020/12/30 01:55:01;;;;;;;7.88;4.18;;;5.20;99.90;;;;;;5022593;28;20038;-82
2020/12/30 01:57:28;;;;;;;7.10;4.22;;;5.30;99.90;;;;;;5025006;28;20553;-82
2020/12/30 01:59:54;;;;;;;5.95;4.07;;;5.20;99.90;;;;;;5025613;28;20048;-81
2020/12/30 02:02:23;;;;;;;6.18;3.88;;;5.20;99.90;;;;;;5035344;28;20037;-80
2020/12/30 02:04:54;;;;;;;4.50;3.50;;;5.30;99.90;;;;;;5030596;28;20052;-80
2020/12/30 02:07:22;;;;;;;7.55;3.70;;;5.30;99.90;;;;;;5025110;28;20398;-87
2020/12/30 02:09:49;;;;;;;5.05;2.65;;;5.30;99.90;;;;;;5024880;28;20034;-82
2020/12/30 02:12:15;;;;;;;3.20;2.20;;;5.20;99.90;;;;;;5011485;28;20043;-78
2020/12/30 02:14:40;;;;;;;4.07;2.20;;;5.20;99.90;;;;;;5009566;28;20116;-80
2020/12/30 02:17:12;;;;;;;3.97;1.83;;;5.40;99.90;;;;;;5029441;28;20042;-80
2020/12/30 02:19:38;;;;;;;4.25;2.22;;;5.10;99.90;;;;;;5021913;28;20041;-84
2020/12/30 02:22:05;;;;;;;3.85;2.13;;;5.10;99.90;;;;;;5024983;28;20572;-80
2020/12/30 02:24:32;;;;;;;4.25;2.65;;;5.10;99.90;;;;;;5027530;28;20033;-80
2020/12/30 02:26:59;;;;;;;3.72;2.10;;;5.00;99.90;;;;;;5031208;28;20025;-81
2020/12/30 02:29:25;;;;;;;6.65;2.72;;;5.00;99.90;;;;;;5028113;28;20406;-80
2020/12/30 02:31:50;;;;;;;4.35;2.60;;;5.00;99.90;;;;;;5016151;28;20116;-80
2020/12/30 02:34:16;;;;;;;5.60;2.67;;;5.00;99.90;;;;;;5026903;28;20056;-86
2020/12/30 02:36:42;;;;;;;7.13;3.00;;;5.00;99.90;;;;;;5008154;28;20816;-83
2020/12/30 02:39:08;;;;;;;5.38;2.65;;;5.00;99.90;;;;;;5030849;28;20049;-82
2020/12/30 02:41:34;;;;;;;3.92;2.63;;;5.00;99.90;;;;;;5030884;28;20041;-81
2020/12/30 02:44:01;;;;;;;5.82;2.90;;;5.00;99.90;;;;;;5024161;28;20045;-81
2020/12/30 02:46:27;;;;;;;4.25;2.80;;;5.00;99.90;;;;;;5033957;28;20056;-86
2020/12/30 02:48:56;;;;;;;3.53;2.30;;;5.10;99.90;;;;;;5031342;28;20053;-80
2020/12/30 02:51:22;;;;;;;4.80;2.80;;;5.00;99.90;;;;;;5037616;28;20061;-82
2020/12/30 02:53:48;;;;;;;4.72;2.85;;;5.00;99.90;;;;;;5030869;28;20041;-81
2020/12/30 02:56:20;;;;;;;5.57;2.65;;;5.00;99.90;;;;;;5028901;28;20025;-83
2020/12/30 02:58:46;;;;;;;6.15;2.90;;;5.00;99.90;;;;;;5035416;28;20095;-81
2020/12/30 03:01:13;;;;;;;4.32;2.38;;;5.00;99.90;;;;;;5036761;28;20467;-83
2020/12/30 03:03:40;;;;;;;5.95;3.25;;;5.00;99.90;;;;;;5037750;28;20041;-82
2020/12/30 03:06:07;;;;;;;5.25;2.35;;;5.00;99.90;;;;;;5039942;28;20042;-80
2020/12/30 03:08:33;;;;;;;5.43;2.70;;;5.00;99.90;;;;;;5056593;28;20032;-84
2020/12/30 03:11:00;;;;;;;5.70;2.60;;;5.00;99.90;;;;;;5042572;28;20070;-81
2020/12/30 03:13:27;;;;;;;9.13;3.22;;;5.00;99.90;;;;;;5045571;28;20522;-83
2020/12/30 03:15:52;;;;;;;4.85;2.13;;;5.00;99.90;;;;;;5040670;28;20049;-82
2020/12/30 03:18:18;;;;;;;5.55;2.55;;;5.00;99.90;;;;;;5043764;28;20294;-83
2020/12/30 03:20:44;;;;;;;4.20;2.28;;;5.00;99.90;;;;;;5035953;28;20104;-82
2020/12/30 03:23:10;;;;;;;6.13;2.83;;;5.10;99.90;;;;;;5042919;28;20041;-82
2020/12/30 03:25:35;;;;;;;5.40;2.72;;;5.10;99.90;;;;;;5039680;28;20052;-84
2020/12/30 03:28:02;;;;;;;6.38;2.78;;;5.10;99.90;;;;;;5032135;28;20044;-81
2020/12/30 03:30:27;;;;;;;8.05;2.75;;;5.10;99.90;;;;;;5031575;28;20049;-82
2020/12/30 03:32:53;;;;;;;7.97;3.22;;;5.10;99.90;;;;;;5034087;28;20037;-81
2020/12/30 03:35:20;;;;;;;6.00;3.13;;;5.00;99.90;;;;;;5036853;28;20409;-81
2020/12/30 03:37:46;;;;;;;5.03;3.20;;;5.00;99.90;;;;;;5038523;28;20456;-83
2020/12/30 03:40:11;;;;;;;5.80;3.83;;;5.00;99.90;;;;;;5041200;28;20046;-81
2020/12/30 03:42:37;;;;;;;8.45;3.90;;;5.00;99.90;;;;;;5035676;28;20037;-80
2020/12/30 03:45:03;;;;;;;8.13;4.32;;;5.00;99.90;;;;;;5037061;28;20045;-83
2020/12/30 03:47:30;;;;;;;10.00;4.18;;;5.00;99.90;;;;;;5039352;28;20148;-81
2020/12/30 03:49:56;;;;;;;9.60;4.53;;;5.00;99.90;;;;;;5035270;28;20255;-81
2020/12/30 03:52:22;;;;;;;8.20;4.38;;;5.00;99.90;;;;;;5054791;28;20041;-81
2020/12/30 03:54:48;;;;;;;11.63;5.03;;;5.00;99.90;;;;;;5032806;28;20048;-84
2020/12/30 03:57:14;;;;;;;7.07;4.28;;;5.10;99.90;;;;;;5033777;28;20046;-82
2020/12/30 03:59:39;;;;;;;8.10;4.10;;;5.00;99.90;;;;;;5036534;28;20063;-81
2020/12/30 04:02:05;;;;;;;5.90;3.50;;;5.00;99.90;;;;;;5035249;28;20100;-82
2020/12/30 04:04:31;;;;;;;6.30;3.25;;;4.90;99.90;;;;;;5037019;28;20053;-85
2020/12/30 04:06:57;;;;;;;7.43;3.28;;;5.00;99.90;;;;;;5032531;28;20046;-81
2020/12/30 04:09:23;;;;;;;6.70;3.67;;;5.00;99.90;;;;;;5037339;28;20465;-80
2020/12/30 04:11:48;;;;;;;7.53;3.78;;;4.90;99.90;;;;;;5030122;28;20048;-81
2020/12/30 04:14:14;;;;;;;6.82;3.53;;;5.00;99.90;;;;;;5037413;28;20034;-82
2020/12/30 04:16:40;;;;;;;6.22;3.15;;;5.00;99.90;;;;;;5030863;28;20419;-81
2020/12/30 04:19:05;;;;;;;7.03;3.65;;;5.00;99.90;;;;;;5037141;28;20044;-81
2020/12/30 04:21:31;;;;;;;5.95;3.38;;;5.00;99.90;;;;;;5038117;28;20523;-80
2020/12/30 04:23:56;;;;;;;5.35;3.13;;;4.90;99.90;;;;;;5018649;28;20469;-82
2020/12/30 04:26:22;;;;;;;6.40;3.13;;;5.00;99.90;;;;;;5051051;28;20021;-81
2020/12/30 04:28:49;;;;;;;4.97;2.78;;;4.90;99.90;;;;;;5037236;28;20060;-81
2020/12/30 04:31:17;;;;;;;5.55;3.10;;;4.90;99.90;;;;;;5037128;28;20041;-83
2020/12/30 04:33:42;;;;;;;5.50;3.10;;;4.90;99.90;;;;;;5036692;28;20041;-81
2020/12/30 04:36:09;;;;;;;3.25;2.00;;;4.90;99.90;;;;;;5042413;28;20511;-81
2020/12/30 04:38:35;;;;;;;3.58;1.95;;;4.80;99.90;;;;;;5038893;28;20160;-84
2020/12/30 04:41:03;;;;;;;4.82;2.08;;;4.80;99.90;;;;;;5011928;28;20044;-80
2020/12/30 04:43:30;;;;;;;4.35;1.77;;;5.10;99.90;;;;;;5036030;28;20048;-81
2020/12/30 04:45:59;;;;;;;4.40;2.05;;;4.80;99.90;;;;;;5035924;28;20034;-81
2020/12/30 04:48:26;;;;;;;3.20;1.95;;;4.70;99.90;;;;;;5042642;28;20040;-79
2020/12/30 04:50:53;;;;;;;4.68;2.28;;;4.80;99.90;;;;;;5040393;28;20068;-82
2020/12/30 04:53:23;;;;;;;4.80;2.30;;;4.80;99.90;;;;;;5033184;28;20120;-81
2020/12/30 04:55:50;;;;;;;6.57;2.55;;;4.80;99.90;;;;;;5039289;28;20064;-80
2020/12/30 04:58:18;;;;;;;6.15;3.10;;;4.80;99.90;;;;;;5023968;28;20039;-81
2020/12/30 05:00:45;;;;;;;6.78;3.45;;;4.80;99.90;;;;;;5035024;28;20585;-81
2020/12/30 05:03:13;;;;;;;5.07;2.90;;;4.80;99.90;;;;;;5036415;28;20099;-81
2020/12/30 05:05:40;;;;;;;6.57;3.58;;;4.80;99.90;;;;;;5028868;28;20435;-81
2020/12/30 05:08:11;;;;;;;7.60;3.47;;;4.90;99.90;;;;;;5032825;28;20511;-81
2020/12/30 05:10:39;;;;;;;8.73;4.60;;;4.90;99.90;;;;;;5033075;28;20037;-84
2020/12/30 05:13:06;;;;;;;8.95;4.43;;;4.80;99.90;;;;;;5030999;28;20038;-79
2020/12/30 05:15:32;;;;;;;8.80;4.47;;;4.90;99.90;;;;;;5035177;28;20030;-81
2020/12/30 05:17:58;;;;;;;9.55;4.22;;;4.80;99.90;;;;;;5038942;28;20037;-83
2020/12/30 05:20:24;;;;;;;9.25;3.83;;;4.80;99.90;;;;;;5040388;28;20064;-82
2020/12/30 05:22:53;;;;;;;11.32;4.70;;;4.90;99.90;;;;;;5040938;28;20038;-83
2020/12/30 05:25:26;;;;;;;9.75;3.88;;;4.90;99.90;;;;;;5037902;28;20503;-81
2020/12/30 05:27:53;;;;;;;6.47;3.70;;;5.00;99.90;;;;;;5039044;28;20030;-81
2020/12/30 05:30:22;;;;;;;7.57;3.70;;;5.00;99.90;;;;;;5035417;28;20041;-88
2020/12/30 05:32:51;;;;;;;12.02;4.20;;;5.00;99.90;;;;;;5041985;28;20096;-81
2020/12/30 05:35:18;;;;;;;11.70;3.92;;;5.00;99.90;;;;;;5042414;28;20033;-81
2020/12/30 05:37:46;;;;;;;9.85;4.35;;;5.00;99.90;;;;;;5036877;28;20091;-85
2020/12/30 05:40:20;;;;;;;8.85;4.32;;;4.90;99.90;;;;;;5035219;28;20506;-83
2020/12/30 05:42:47;;;;;;;8.35;3.85;;;4.90;99.90;;;;;;5035669;28;20094;-81
2020/12/30 05:45:19;;;;;;;8.93;3.90;;;4.90;99.90;;;;;;5041583;28;20030;-81
2020/12/30 05:47:45;;;;;;;8.43;4.22;;;4.90;99.90;;;;;;5038323;28;20033;-82
2020/12/30 05:50:12;;;;;;;11.80;5.38;;;4.90;99.90;;;;;;5035740;28;20125;-82
2020/12/30 05:52:39;;;;;;;11.35;5.55;;;4.90;99.90;;;;;;5018113;28;20037;-81
2020/12/30 05:55:08;;;;;;;13.80;4.88;;;4.90;99.90;;;;;;5033066;28;20394;-84
2020/12/30 05:57:36;;;;;;;7.97;4.65;;;5.00;99.90;;;;;;5035500;28;20034;-80
2020/12/30 06:00:13;;;;;;;12.13;4.57;;;4.90;99.90;;;;;;5040752;28;20052;-80
2020/12/30 06:02:43;;;;;;;10.07;4.68;;;4.90;99.90;;;;;;5039135;28;20174;-81
2020/12/30 06:05:16;;;;;;;7.72;4.35;;;4.90;99.90;;;;;;5041140;28;20041;-83
2020/12/30 06:07:46;;;;;;;10.45;4.40;;;4.90;99.90;;;;;;5038353;28;20033;-84
2020/12/30 06:10:14;;;;;;;10.50;4.37;;;5.00;99.90;;;;;;5036363;28;20499;-82
2020/12/30 06:12:51;;;;;;;12.73;5.18;;;4.90;99.90;;;;;;5041070;28;20303;-81
2020/12/30 06:15:19;;;;;;;9.10;5.28;;;4.90;99.90;;;;;;5046385;28;20030;-87
2020/12/30 06:17:58;;;;;;;13.40;4.72;;;4.90;99.90;;;;;;5038023;28;20037;-81
2020/12/30 06:20:36;;;;;;;11.07;4.65;;;5.00;99.90;;;;;;5032117;28;20025;-80
2020/12/30 06:23:08;;;;;;;11.75;5.10;;;5.00;99.90;;;;;;5032096;28;20574;-80
2020/12/30 06:25:36;;;;;;;10.98;4.80;;;5.00;99.90;;;;;;5033349;28;20029;-81
2020/12/30 06:28:17;;;;;;;11.05;5.00;;;5.00;99.90;;;;;;5028926;28;20041;-80
2020/12/30 06:30:47;;;;;;;11.63;5.00;;;4.90;99.90;;;;;;5028450;28;20036;-82
2020/12/30 06:33:13;;;;;;;17.00;5.47;;;4.90;99.90;;;;;;5026153;28;20036;-80
2020/12/30 06:35:41;;;;;;;8.35;4.82;;;4.90;99.90;;;;;;5033547;28;20845;-84
2020/12/30 06:38:20;;;;;;;10.45;5.60;;;4.90;99.90;;;;;;5038110;28;20104;-81
2020/12/30 06:40:57;;;;;;;12.27;5.53;;;4.90;99.90;;;;;;5040482;28;20099;-82
2020/12/30 06:43:45;;;;;;;13.27;5.55;;;4.90;99.90;;;;;;5040160;28;20168;-81
2020/12/30 06:46:13;;;;;;;9.95;5.35;;;5.00;99.90;;;;;;5039229;28;20045;-82
2020/12/30 06:48:59;;;;;;;13.18;5.25;;;5.00;99.90;;;;;;5052210;28;20044;-81
2020/12/30 06:51:26;;;;;;;11.18;4.72;;;5.00;99.90;;;;;;5030101;28;20037;-81
2020/12/30 06:53:55;;;;;;;11.32;5.40;;;5.00;99.90;;;;;;5060577;28;20038;-81
2020/12/30 06:56:40;;;;;;;12.90;6.35;;;4.90;99.90;;;;;;5038080;28;20033;-81
2020/12/30 06:59:07;;;;;;;10.23;5.45;;;4.90;99.90;;;;;;5040716;28;20037;-83
2020/12/30 07:01:51;;;;;;;11.70;6.13;;;4.90;99.90;;;;;;5041390;28;20416;-82
2020/12/30 07:04:17;;;;;;;13.57;6.30;;;4.90;99.90;;;;;;5040931;28;20044;-81
2020/12/30 07:06:43;;;;;;;10.60;5.78;;;4.90;99.90;;;;;;5038887;28;20040;-81
2020/12/30 07:09:12;;;;;;;14.02;7.20;;;4.90;99.90;;;;;;5029823;28;20116;-80
2020/12/30 07:11:54;;;;;;;10.00;5.97;;;4.90;99.90;;;;;;5034363;28;20052;-79
2020/12/30 07:14:21;;;;;;;11.50;6.07;;;5.00;99.90;;;;;;5031854;28;20053;-83
2020/12/30 07:16:48;;;;;;;11.07;6.00;;;4.90;99.90;;;;;;5038792;28;20043;-81
2020/12/30 07:19:27;;;;;;;12.70;5.97;;;4.90;99.90;;;;;;5042495;28;20029;-81
2020/12/30 07:21:59;;;;;;;10.70;6.15;;;4.90;99.90;;;;;;5049484;28;20593;-81
2020/12/30 07:24:40;;;;;;;9.60;5.43;;;4.80;99.90;;;;;;5043427;28;20183;-81
2020/12/30 07:27:09;;;;;;;12.47;5.80;;;4.80;99.90;;;;;;5037098;28;20041;-81
2020/12/30 07:29:34;;;;;;;5.63;3.45;;;4.70;99.90;;;;;;5040388;28;20471;-84
2020/12/30 07:32:02;;;;;;;4.95;2.17;;;4.80;99.90;;;;;;5024403;28;20138;-81
2020/12/30 07:34:30;;;;;;;5.75;2.75;;;4.90;99.90;;;;;;5048622;28;20037;-82
2020/12/30 07:36:56;;;;;;;5.68;2.60;;;4.80;99.90;;;;;;5039899;28;20034;-82
2020/12/30 07:39:40;;;;;;;4.88;2.22;;;4.80;99.90;;;;;;5041192;28;20517;-81
2020/12/30 07:42:07;;;;;;;4.65;2.13;;;4.80;99.90;;;;;;5043336;28;20095;-81
2020/12/30 07:44:33;;;;;;;4.72;2.15;;;4.70;99.90;;;;;;5046209;28;20071;-81
2020/12/30 07:47:04;;;;;;;5.18;2.20;;;4.80;99.90;;;;;;5038916;28;20041;-81
2020/12/30 07:49:29;;;;;;;;;;;4.80;99.90;;;;;;5039699;28;20503;-81
2020/12/30 07:51:57;;;;;;;5.78;2.25;;;4.80;99.90;;;;;;5037765;28;19919;-86
2020/12/30 07:54:24;;;;;;;4.80;2.38;;;4.70;99.90;;;;;;5039500;28;20021;-81
2020/12/30 07:56:59;;;;;;;6.18;2.00;;;4.70;99.90;;;;;;5042883;28;20033;-80
2020/12/30 07:59:25;;;;;;;5.22;2.20;;;4.80;99.90;;;;;;5036647;28;20041;-81
2020/12/30 08:02:00;;;;;;;3.03;1.48;;;4.80;99.90;;;;;;5040648;28;20059;-80
2020/12/30 08:04:27;;;;;;;4.60;1.70;;;4.80;99.90;;;;;;5041807;28;20060;-80
2020/12/30 08:06:53;;;;;;;5.13;1.50;;;4.70;99.90;;;;;;5044120;28;20427;-81
2020/12/30 08:09:19;;;;;;;3.13;1.50;;;4.70;99.90;;;;;;5037996;28;20045;-81
2020/12/30 08:11:53;;;;;;;2.92;1.52;;;4.60;99.90;;;;;;5035972;28;20542;-82
2020/12/30 08:14:20;;;;;;;3.63;1.70;;;4.60;99.90;;;;;;5046985;28;20029;-81
2020/12/30 08:16:50;;;;;;;4.60;2.00;;;4.60;99.90;;;;;;5035039;28;20041;-84
2020/12/30 08:19:48;;;;;;;5.25;2.10;;;4.60;99.90;;;;;;5043617;28;20041;-84
2020/12/30 08:22:16;;;;;;;5.25;2.50;;;4.60;99.90;;;;;;5035332;28;20064;-83
2020/12/30 08:24:45;;;;;;;5.63;2.58;;;4.60;99.90;;;;;;5036732;28;20049;-84
2020/12/30 08:27:15;;;;;;;8.02;3.17;;;4.70;99.90;;;;;;5032554;28;20037;-79
2020/12/30 08:29:42;;;;;;;9.70;3.70;;;4.70;99.90;;;;;;5027671;28;20037;-82
2020/12/30 08:32:32;;;;;;;10.63;4.53;;;4.70;99.90;;;;;;5035172;28;20116;-84
2020/12/30 08:35:08;;;;;;;12.43;4.95;;;4.70;99.90;;;;;;5029531;28;20105;-80
2020/12/30 08:37:44;;;;;;;10.45;4.55;;;4.70;99.90;;;;;;5033085;28;20037;-80
2020/12/30 08:40:22;;;;;;;7.85;4.57;;;4.80;99.90;;;;;;5023142;28;20052;-81
2020/12/30 08:42:54;;;;;;;10.18;5.35;;;4.90;99.90;;;;;;5035741;28;20041;-80
2020/12/30 08:45:31;;;;;;;21.48;6.45;;;5.00;99.90;;;;;;5031420;28;20079;-80
2020/12/30 08:48:06;;;;;;;15.10;5.30;;;5.00;99.90;;;;;;5030441;28;20083;-82
2020/12/30 08:50:33;;;;;;;13.45;6.72;;;5.10;99.90;;;;;;5032784;28;20034;-78
2020/12/30 08:53:01;;;;;;;11.48;6.72;;;5.10;99.90;;;;;;5018703;28;20374;-85
2020/12/30 08:55:27;;;;;;;14.35;7.20;;;5.10;99.90;;;;;;5016649;28;20036;-80
2020/12/30 08:57:52;;;;;;;12.73;7.13;;;5.10;99.90;;;;;;5036226;28;20038;-81
2020/12/30 09:00:23;;;;;;;11.30;6.95;;;5.10;99.90;;;;;;5009596;28;20041;-81
2020/12/30 09:02:51;;;;;;;14.00;6.13;;;5.20;99.90;;;;;;5052321;28;20038;-84
2020/12/30 09:05:27;;;;;;;12.60;6.75;;;5.20;99.90;;;;;;5030682;28;20030;-83
2020/12/30 09:07:53;;;;;;;10.38;6.00;;;5.30;99.90;;;;;;5034003;28;20201;-82
2020/12/30 09:10:19;;;;;;;16.05;6.30;;;5.30;99.90;;;;;;5030840;28;20041;-81
2020/12/30 09:12:45;;;;;;;10.95;5.75;;;5.40;99.90;;;;;;4999303;28;20507;-80
2020/12/30 09:15:15;;;;;;;15.32;6.15;;;5.40;99.90;;;;;;5035992;28;20045;-80
2020/12/30 09:17:41;;;;;;;12.00;5.55;;;5.40;99.90;;;;;;5033587;28;20700;-80
2020/12/30 09:20:16;;;;;;;12.32;4.60;;;5.40;99.90;;;;;;5032717;28;20037;-79
2020/12/30 09:22:43;;;;;;;12.85;4.95;;;5.40;99.90;;;;;;5033051;28;20037;-80
2020/12/30 09:25:26;;;;;;;9.27;5.07;;;5.50;99.90;;;;;;5033434;28;20049;-79
2020/12/30 09:27:52;;;;;;;11.77;4.70;;;6.60;99.90;;;;;;5036214;28;20029;-84
2020/12/30 09:30:20;;;;;;;10.43;4.55;;;7.00;99.90;;;;;;5029027;28;20329;-81
2020/12/30 09:32:47;;;;;;;9.85;4.47;;;6.20;99.90;;;;;;5037404;28;20407;-82
2020/12/30 09:35:17;;;;;;;10.95;4.72;;;6.50;99.90;;;;;;5035335;28;20037;-79
2020/12/30 09:37:51;;;;;;;11.40;4.85;;;7.10;99.90;;;;;;5036830;28;20027;-82
2020/12/30 09:40:18;;;;;;;10.10;4.32;;;5.50;99.90;;;;;;5034565;28;20033;-87
2020/12/30 09:42:45;;;;;;;10.40;5.03;;;5.30;99.90;;;;;;5029529;28;20052;-85
2020/12/30 09:45:14;;;;;;;10.40;4.22;;;5.60;99.90;;;;;;5033301;28;20075;-81
2020/12/30 09:47:41;;;;;;;9.18;4.30;;;5.60;99.90;;;;;;5035357;28;20122;-82
2020/12/30 09:50:11;;;;;;;11.88;4.97;;;5.60;99.90;;;;;;5004187;28;20048;-82
2020/12/30 09:52:45;;;;;;;12.05;4.22;;;5.60;99.90;;;;;;5032793;28;20033;-80
2020/12/30 09:55:12;;;;;;;9.38;3.90;;;5.70;99.90;;;;;;5032289;28;20403;-79
2020/12/30 09:57:39;;;;;;;10.50;4.40;;;5.90;99.90;;;;;;5031648;28;20087;-83
2020/12/30 10:00:09;;;;;;;12.27;4.68;;;5.80;99.90;;;;;;5035348;28;20041;-79
2020/12/30 10:02:44;;;;;;;8.52;4.10;;;5.90;99.90;;;;;;5032569;28;20498;-81
2020/12/30 10:05:10;;;;;;;8.00;3.70;;;5.80;99.90;;;;;;5045415;28;20042;-82
2020/12/30 10:07:40;;;;;;;9.90;4.13;;;5.90;99.90;;;;;;5028462;28;20051;-80
2020/12/30 10:10:05;;;;;;;7.38;3.50;;;5.70;99.90;;;;;;5034768;28;20052;-80
2020/12/30 10:12:31;;;;;;;10.40;4.03;;;5.70;99.90;;;;;;5030817;28;20038;-82
2020/12/30 10:14:57;;;;;;;8.73;3.72;;;5.70;99.90;;;;;;5029548;28;20033;-80
2020/12/30 10:17:23;;;;;;;8.77;3.67;;;5.80;99.90;;;;;;5032931;28;20032;-82
2020/12/30 10:19:49;;;;;;;8.02;4.07;;;5.80;99.90;;;;;;5038041;28;20037;-86
2020/12/30 10:22:15;;;;;;;8.63;3.42;;;5.70;99.90;;;;;;5037778;28;20156;-79
2020/12/30 10:24:48;;;;;;;8.13;3.60;;;5.70;99.90;;;;;;5027924;28;20121;-79
2020/12/30 10:27:17;;;;;;;9.23;3.35;;;5.70;99.90;;;;;;5028827;28;20026;-82
2020/12/30 10:29:44;;;;;;;5.05;3.05;;;5.70;99.90;;;;;;5035396;28;20025;-79
2020/12/30 10:32:10;;;;;;;7.53;3.13;;;5.70;99.90;;;;;;5036061;28;20487;-80
2020/12/30 10:34:36;;;;;;;6.38;3.13;;;5.80;99.90;;;;;;5013971;28;20044;-82
2020/12/30 10:37:03;;;;;;;6.55;3.08;;;6.60;99.90;;;;;;5037631;28;20056;-83
2020/12/30 10:39:28;;;;;;;9.07;3.70;;;7.30;99.90;;;;;;5034342;28;20060;-80
2020/12/30 10:41:55;;;;;;;7.85;3.50;;;6.30;99.90;;;;;;5031698;28;20045;-79
2020/12/30 10:44:21;;;;;;;5.60;3.03;;;5.70;99.90;;;;;;5037022;28;20040;-81
2020/12/30 10:46:48;;;;;;;9.43;3.08;;;5.80;99.90;;;;;;5035367;28;20112;-82
2020/12/30 10:49:14;;;;;;;8.77;3.72;;;6.50;99.90;;;;;;5034054;28;20048;-81
2020/12/30 10:51:39;;;;;;;7.53;3.33;;;6.60;99.90;;;;;;5031748;28;20033;-81
2020/12/30 10:54:06;;;;;;;5.00;2.45;;;5.90;99.90;;;;;;5015299;28;20052;-81
2020/12/30 10:56:31;;;;;;;6.05;2.60;;;5.80;99.90;;;;;;5027381;28;20475;-82
2020/12/30 10:58:57;;;;;;;6.30;2.72;;;5.90;99.90;;;;;;5023395;28;20519;-84
2020/12/30 11:01:23;;;;;;;6.70;3.20;;;6.70;99.90;;;;;;5031269;28;20087;-83
2020/12/30 11:03:49;;;;;;;5.68;2.80;;;6.00;99.90;;;;;;5024517;28;20784;-81
2020/12/30 11:06:15;;;;;;;4.93;2.78;;;7.90;99.90;;;;;;5027986;28;20434;-82
2020/12/30 11:08:43;;;;;;;5.22;2.70;;;6.00;99.90;;;;;;4998410;28;20048;-83
2020/12/30 11:11:08;;;;;;;7.75;3.05;;;6.00;99.90;;;;;;5014888;28;20049;-82
2020/12/30 11:13:34;;;;;;;4.90;2.90;;;6.10;99.90;;;;;;5010128;28;20476;-81
2020/12/30 11:16:00;;;;;;;6.45;3.60;;;7.90;99.90;;;;;;5028702;28;20113;-80
2020/12/30 11:18:25;;;;;;;10.43;4.88;;;6.50;99.90;;;;;;5013774;28;20407;-82
2020/12/30 11:20:51;;;;;;;6.70;3.08;;;4.70;99.90;;;;;;5032350;28;20083;-81
2020/12/30 11:23:17;;;;;;;7.25;3.13;;;5.90;99.90;;;;;;5024017;28;20037;-82
2020/12/30 11:25:44;;;;;;;6.40;3.20;;;7.30;99.90;;;;;;5025435;28;20044;-81
2020/12/30 11:28:10;;;;;;;6.00;2.78;;;7.50;99.90;;;;;;5034867;28;20119;-82
2020/12/30 11:30:37;;;;;;;6.45;3.67;;;5.90;99.90;;;;;;5038026;28;20034;-81
2020/12/30 11:33:03;;;;;;;7.18;3.45;;;6.10;99.90;;;;;;5043527;28;20088;-79
2020/12/30 11:35:29;;;;;;;5.82;2.92;;;5.80;99.90;;;;;;5035121;28;20095;-81
2020/12/30 11:37:55;;;;;;;6.07;3.25;;;6.90;99.90;;;;;;5034335;28;20041;-82
2020/12/30 11:40:21;;;;;;;6.90;2.88;;;6.80;99.90;;;;;;5014834;28;20565;-82
2020/12/30 11:42:47;;;;;;;6.90;2.58;;;7.30;99.90;;;;;;5018400;28;20045;-80
2020/12/30 11:45:13;;;;;;;6.70;2.67;;;6.10;99.90;;;;;;5029596;28;20509;-81
2020/12/30 11:47:39;;;;;;;5.93;2.53;;;7.80;99.90;;;;;;5030537;28;20114;-82
2020/12/30 11:50:05;;;;;;;6.10;2.60;;;7.30;99.90;;;;;;5032461;28;20434;-82
2020/12/30 11:52:31;;;;;;;6.60;3.28;;;7.10;99.90;;;;;;5035957;28;20025;-82
2020/12/30 11:54:57;;;;;;;6.88;2.90;;;6.10;99.90;;;;;;5048314;28;20093;-82
2020/12/30 11:57:24;;;;;;;7.50;3.00;;;7.10;99.90;;;;;;5034687;28;20507;-82
2020/12/30 11:59:49;;;;;;;6.32;3.00;;;7.80;99.90;;;;;;5029672;28;20049;-81
2020/12/30 12:02:15;;;;;;;4.43;2.50;;;7.80;99.90;;;;;;5000111;28;20045;-82
2020/12/30 12:04:41;;;;;;;6.47;2.67;;;6.60;99.90;;;;;;5031320;28;20521;-86
2020/12/30 12:07:07;;;;;;;7.85;2.90;;;7.40;99.90;;;;;;5028052;28;20049;-85
2020/12/30 12:09:33;;;;;;;5.53;2.95;;;7.70;99.90;;;;;;5013800;28;20041;-81
2020/12/30 12:12:00;;;;;;;9.57;2.70;;;7.30;99.90;;;;;;5019161;28;20372;-80
2020/12/30 12:14:26;;;;;;;5.60;2.70;;;6.20;99.90;;;;;;5030546;28;20516;-79
2020/12/30 12:16:57;;;;;;;6.43;2.78;;;6.60;99.90;;;;;;5029937;28;20045;-81
2020/12/30 12:19:23;;;;;;;4.13;2.50;;;7.10;99.90;;;;;;5035910;28;20036;-81
2020/12/30 12:21:49;;;;;;;5.53;2.63;;;6.70;99.90;;;;;;5034346;28;20030;-81
2020/12/30 12:24:16;;;;;;;5.85;2.40;;;6.40;99.90;;;;;;5033041;28;20383;-79
2020/12/30 12:26:43;;;;;;;6.10;2.90;;;6.60;99.90;;;;;;5035822;28;20159;-80
2020/12/30 12:29:42;;;;;;;5.85;2.58;;;7.60;99.90;;;;;;5032639;28;20037;-79
2020/12/30 12:32:16;;;;;;;4.47;2.53;;;7.00;99.90;;;;;;5025752;28;20041;-80
2020/12/30 12:34:44;;;;;;;5.18;2.20;;;7.90;99.30;;;;;;5028420;28;20514;-81
2020/12/30 12:37:12;;;;;;;5.05;2.13;;;7.00;98.50;;;;;;5030896;28;20124;-80
2020/12/30 12:39:38;;;;;;;4.20;2.30;;;7.00;98.30;;;;;;5026650;28;20025;-78
2020/12/30 12:42:05;;;;;;;5.22;2.60;;;6.90;98.00;;;;;;5028478;28;20084;-79
2020/12/30 12:44:31;;;;;;;2.83;1.98;;;7.00;98.50;;;;;;5030877;28;20056;-81
2020/12/30 12:46:57;;;;;;;5.10;2.30;;;7.00;97.50;;;;;;5029904;28;20729;-79
2020/12/30 12:49:23;;;;;;;4.47;2.38;;;7.00;98.00;;;;;;5026395;28;20079;-79
2020/12/30 12:51:51;;;;;;;4.80;1.90;;;7.10;98.10;;;;;;5006907;28;20045;-80
2020/12/30 12:54:23;;;;;;;7.03;3.40;;;7.10;98.00;;;;;;5019532;28;20033;-80
2020/12/30 12:57:03;;;;;;;3.67;2.13;;;7.20;98.50;;;;;;5035743;28;20530;-79
2020/12/30 12:59:29;;;;;;;4.97;2.45;;;7.10;98.70;;;;;;5022657;28;20034;-80